Time,TemperatureF,DewpointF,PressureIn,WindDirection,WindDirectionDegrees,WindSpeedMPH,WindSpeedGustMPH,Humidity,HourlyPrecipIn,Conditions,Clouds,dailyrainin,SoftwareType,DateUTC
2013-03-07 00:00:00,53.8,41.5,17.72,NNW,344,0.0,0.0,63,0.00,,,0.00,VWS V14.01,2013-03-07 05:00:00,
2013-03-07 00:01:00,53.8,41.5,17.72,NNW,344,0.0,0.0,63,0.00,,,0.00,VWS V14.01,2013-03-07 05:01:00,
2013-03-07 00:02:00,53.8,41.5,17.72,NNW,344,0.0,0.0,63,0.00,,,0.00,VWS V14.01,2013-03-07 05:02:00,
2013-03-07 00:05:00,53.8,41.5,17.72,NNW,343,0.0,0.0,63,0.00,,,0.00,VWS V14.01,2013-03-07 05:05:00,
2013-03-07 00:11:00,53.8,41.5,17.72,North,0,0.0,0.0,63,0.00,,,0.00,VWS V14.01,2013-03-07 05:11:00,
2013-03-07 00:16:00,53.8,41.1,17.72,NNE,17,0.0,0.0,62,0.00,,,0.00,VWS V14.01,2013-03-07 05:16:00,
2013-03-07 00:22:00,53.8,41.1,17.72,North,6,0.0,0.0,62,0.00,,,0.00,VWS V14.01,2013-03-07 05:22:00,
2013-03-07 00:27:00,53.8,41.1,17.72,NNW,336,0.0,0.0,62,0.00,,,0.00,VWS V14.01,2013-03-07 05:27:00,
2013-03-07 00:32:00,53.6,40.9,17.72,NNW,336,0.0,0.0,62,0.00,,,0.00,VWS V14.01,2013-03-07 05:32:00,
2013-03-07 00:37:00,53.6,40.9,17.72,NNW,336,0.0,0.0,62,0.00,,,0.00,VWS V14.01,2013-03-07 05:37:00,
2013-03-07 00:42:00,53.4,41.2,17.72,NNW,348,0.0,0.0,63,0.00,,,0.00,VWS V14.01,2013-03-07 05:42:00,
2013-03-07 00:47:00,53.4,41.2,17.72,NNW,348,0.0,0.0,63,0.00,,,0.00,VWS V14.01,2013-03-07 05:47:00,
2013-03-07 00:53:00,53.2,41.0,17.72,NNW,346,0.0,0.0,63,0.00,,,0.00,VWS V14.01,2013-03-07 05:53:00,
2013-03-07 00:59:00,53.2,41.0,17.72,ENE,58,0.0,0.0,63,0.00,,,0.00,VWS V14.01,2013-03-07 05:59:00,
2013-03-07 01:04:00,53.2,41.0,17.72,North,8,0.0,0.0,63,0.00,,,0.00,VWS V14.01,2013-03-07 06:04:00,
2013-03-07 01:10:00,53.2,41.0,17.72,North,0,0.0,0.0,63,0.00,,,0.00,VWS V14.01,2013-03-07 06:10:00,
2013-03-07 01:15:00,53.1,40.8,17.72,North,1,0.0,0.0,63,0.00,,,0.00,VWS V14.01,2013-03-07 06:15:00,
2013-03-07 01:21:00,53.1,41.2,17.72,North,1,0.0,0.0,64,0.00,,,0.00,VWS V14.01,2013-03-07 06:21:00,
2013-03-07 01:26:00,52.9,41.0,17.72,NW,318,0.0,0.0,64,0.00,,,0.00,VWS V14.01,2013-03-07 06:26:00,
2013-03-07 01:31:00,52.9,41.0,17.72,NW,318,0.0,0.0,64,0.00,,,0.00,VWS V14.01,2013-03-07 06:31:00,
2013-03-07 01:37:00,53.1,41.2,17.72,NNW,335,0.0,0.0,64,0.00,,,0.00,VWS V14.01,2013-03-07 06:37:00,
2013-03-07 01:42:00,52.9,41.0,17.72,NNE,15,0.0,0.0,64,0.00,,,0.00,VWS V14.01,2013-03-07 06:42:00,
2013-03-07 01:47:00,52.9,41.0,17.72,NNE,27,0.0,0.0,64,0.00,,,0.00,VWS V14.01,2013-03-07 06:47:00,
2013-03-07 01:52:00,52.7,40.9,17.72,NNE,18,0.0,0.0,64,0.00,,,0.00,VWS V14.01,2013-03-07 06:52:00,
2013-03-07 01:58:00,52.5,41.1,17.72,NNW,341,0.0,0.0,65,0.00,,,0.00,VWS V14.01,2013-03-07 06:58:00,
2013-03-07 02:03:00,52.3,40.9,17.72,North,2,0.0,0.0,65,0.00,,,0.00,VWS V14.01,2013-03-07 07:03:00,
2013-03-07 02:08:00,52.3,40.9,17.72,NE,35,0.0,0.0,65,0.00,,,0.00,VWS V14.01,2013-03-07 07:08:00,
2013-03-07 02:13:00,52.2,40.8,17.72,NE,34,0.0,0.0,65,0.00,,,0.00,VWS V14.01,2013-03-07 07:13:00,
2013-03-07 02:18:00,52.0,40.6,17.72,NNE,21,0.0,0.0,65,0.00,,,0.00,VWS V14.01,2013-03-07 07:18:00,
2013-03-07 02:24:00,52.0,40.6,17.72,NNE,20,0.0,0.0,65,0.00,,,0.00,VWS V14.01,2013-03-07 07:24:00,
2013-03-07 02:30:00,52.0,40.2,17.72,North,9,0.0,0.0,64,0.00,,,0.00,VWS V14.01,2013-03-07 07:30:00,
2013-03-07 02:35:00,52.0,39.8,17.72,North,0,0.0,3.1,63,0.00,,,0.00,VWS V14.01,2013-03-07 07:35:00,
2013-03-07 02:41:00,52.0,39.4,17.72,NNE,12,0.0,0.0,62,0.00,,,0.00,VWS V14.01,2013-03-07 07:41:00,
2013-03-07 02:46:00,51.8,38.4,17.72,North,9,2.7,3.6,60,0.00,,,0.00,VWS V14.01,2013-03-07 07:46:00,
2013-03-07 02:52:00,51.8,37.5,17.72,NNE,20,0.0,3.1,58,0.00,,,0.00,VWS V14.01,2013-03-07 07:52:00,
2013-03-07 02:57:00,51.8,37.1,17.72,NNE,31,2.7,3.1,57,0.00,,,0.00,VWS V14.01,2013-03-07 07:57:00,
2013-03-07 03:02:00,51.6,36.9,17.72,NNE,22,2.7,3.6,57,0.00,,,0.00,VWS V14.01,2013-03-07 08:02:00,
2013-03-07 03:08:00,51.6,36.5,17.72,NNE,32,5.4,5.4,56,0.00,,,0.00,VWS V14.01,2013-03-07 08:08:00,
2013-03-07 03:13:00,51.6,36.0,17.72,NNE,27,0.0,0.0,55,0.00,,,0.00,VWS V14.01,2013-03-07 08:13:00,
2013-03-07 03:19:00,51.6,36.0,17.72,NNE,17,3.6,3.6,55,0.00,,,0.00,VWS V14.01,2013-03-07 08:19:00,
2013-03-07 03:24:00,51.4,35.8,17.72,NNE,27,0.0,3.6,55,0.00,,,0.00,VWS V14.01,2013-03-07 08:24:00,
2013-03-07 03:29:00,51.3,35.2,17.72,NNE,33,3.6,4.0,54,0.00,,,0.00,VWS V14.01,2013-03-07 08:29:00,
2013-03-07 03:35:00,51.1,35.0,17.72,NE,44,4.0,5.4,54,0.00,,,0.00,VWS V14.01,2013-03-07 08:35:00,
2013-03-07 03:41:00,51.1,35.0,17.72,NNE,29,3.6,3.6,54,0.00,,,0.00,VWS V14.01,2013-03-07 08:41:00,
2013-03-07 03:46:00,51.1,34.6,17.72,NNE,31,3.6,3.6,53,0.00,,,0.00,VWS V14.01,2013-03-07 08:46:00,
2013-03-07 03:51:00,50.9,34.4,17.72,NNE,21,4.0,4.0,53,0.00,,,0.00,VWS V14.01,2013-03-07 08:51:00,
2013-03-07 03:56:00,50.7,34.2,17.72,NNE,28,3.1,4.0,53,0.00,,,0.00,VWS V14.01,2013-03-07 08:56:00,
2013-03-07 04:02:00,50.7,34.2,17.72,NNE,30,2.7,3.6,53,0.00,,,0.00,VWS V14.01,2013-03-07 09:02:00,
2013-03-07 04:07:00,50.5,34.1,17.72,NNE,26,2.7,3.6,53,0.00,,,0.00,VWS V14.01,2013-03-07 09:07:00,
2013-03-07 04:12:00,50.5,34.1,17.72,NNE,19,2.2,4.0,53,0.00,,,0.00,VWS V14.01,2013-03-07 09:12:00,
2013-03-07 04:17:00,50.4,33.9,17.72,NNE,25,3.1,4.9,53,0.00,,,0.00,VWS V14.01,2013-03-07 09:17:00,
2013-03-07 04:23:00,50.2,33.7,17.72,NE,48,4.0,5.4,53,0.00,,,0.00,VWS V14.01,2013-03-07 09:23:00,
2013-03-07 04:29:00,50.0,33.6,17.72,NNE,25,2.7,3.1,53,0.00,,,0.00,VWS V14.01,2013-03-07 09:29:00,
2013-03-07 04:34:00,50.0,33.6,17.72,NNE,25,2.7,4.9,53,0.00,,,0.00,VWS V14.01,2013-03-07 09:34:00,
2013-03-07 04:40:00,49.8,33.4,17.72,NE,38,3.6,3.6,53,0.00,,,0.00,VWS V14.01,2013-03-07 09:40:00,
2013-03-07 04:45:00,49.8,33.4,17.72,NNE,19,3.6,4.9,53,0.00,,,0.00,VWS V14.01,2013-03-07 09:45:00,
2013-03-07 04:50:00,49.6,33.2,17.72,NNE,30,3.1,3.1,53,0.00,,,0.00,VWS V14.01,2013-03-07 09:50:00,
2013-03-07 04:55:00,49.6,33.2,17.72,NE,52,0.0,3.6,53,0.00,,,0.00,VWS V14.01,2013-03-07 09:55:00,
2013-03-07 05:01:00,49.5,33.1,17.72,NNE,14,0.0,0.0,53,0.00,,,0.00,VWS V14.01,2013-03-07 10:01:00,
2013-03-07 05:06:00,49.5,33.1,17.72,NNE,31,0.0,0.0,53,0.00,,,0.00,VWS V14.01,2013-03-07 10:06:00,
2013-03-07 05:12:00,49.3,33.4,17.72,NNE,29,0.0,0.0,54,0.00,,,0.00,VWS V14.01,2013-03-07 10:12:00,
2013-03-07 05:17:00,49.1,33.2,17.72,NE,39,0.0,0.0,54,0.00,,,0.00,VWS V14.01,2013-03-07 10:17:00,
2013-03-07 05:23:00,49.1,33.2,17.72,NE,49,4.0,4.0,54,0.00,,,0.00,VWS V14.01,2013-03-07 10:23:00,
2013-03-07 05:28:00,48.7,32.8,17.72,NNE,29,0.0,4.0,54,0.00,,,0.00,VWS V14.01,2013-03-07 10:28:00,
2013-03-07 05:33:00,48.7,32.8,17.72,North,8,0.0,0.0,54,0.00,,,0.00,VWS V14.01,2013-03-07 10:33:00,
2013-03-07 05:38:00,48.6,33.1,17.72,North,11,0.0,0.0,55,0.00,,,0.00,VWS V14.01,2013-03-07 10:38:00,
2013-03-07 05:44:00,48.7,33.3,17.72,NNE,27,0.0,0.0,55,0.00,,,0.00,VWS V14.01,2013-03-07 10:44:00,
2013-03-07 05:49:00,48.4,33.0,17.72,North,350,0.0,0.0,55,0.00,,,0.00,VWS V14.01,2013-03-07 10:49:00,
2013-03-07 05:54:00,48.2,32.8,17.72,NNE,28,3.1,3.1,55,0.00,,,0.00,VWS V14.01,2013-03-07 10:54:00,
2013-03-07 05:59:00,48.2,32.3,17.72,North,11,0.0,3.1,54,0.00,,,0.00,VWS V14.01,2013-03-07 10:59:00,
2013-03-07 06:04:00,48.2,32.3,17.72,NE,52,4.5,4.5,54,0.00,,,0.00,VWS V14.01,2013-03-07 11:04:00,
2013-03-07 06:09:00,48.0,32.6,17.72,NE,41,0.0,0.0,55,0.00,,,0.00,VWS V14.01,2013-03-07 11:09:00,
2013-03-07 06:15:00,48.0,32.6,17.72,NNE,12,0.0,0.0,55,0.00,,,0.00,VWS V14.01,2013-03-07 11:15:00,
2013-03-07 06:20:00,48.0,32.2,17.72,NE,38,0.0,4.0,54,0.00,,,0.00,VWS V14.01,2013-03-07 11:20:00,
2013-03-07 06:25:00,47.8,32.0,17.72,NE,34,0.0,4.0,54,0.00,,,0.00,VWS V14.01,2013-03-07 11:25:00,
2013-03-07 06:30:00,47.8,32.0,17.72,NNE,16,0.0,0.0,54,0.00,,,0.00,VWS V14.01,2013-03-07 11:30:00,
2013-03-07 06:36:00,47.8,32.0,17.72,NNE,25,0.0,4.9,54,0.00,,,0.00,VWS V14.01,2013-03-07 11:36:00,
2013-03-07 06:41:00,47.8,32.0,17.72,NNE,30,2.7,4.0,54,0.00,,,0.00,VWS V14.01,2013-03-07 11:41:00,
2013-03-07 06:46:00,47.7,31.9,17.72,NNE,32,0.0,4.0,54,0.00,,,0.00,VWS V14.01,2013-03-07 11:46:00,
2013-03-07 06:51:00,47.8,32.0,17.72,NNE,15,3.6,3.6,54,0.00,,,0.00,VWS V14.01,2013-03-07 11:51:00,
2013-03-07 06:57:00,47.7,31.9,17.72,NE,43,3.6,4.5,54,0.00,,,0.00,VWS V14.01,2013-03-07 11:57:00,
2013-03-07 07:02:00,47.7,31.9,17.72,NNE,32,0.0,2.7,54,0.00,,,0.00,VWS V14.01,2013-03-07 12:02:00,
2013-03-07 07:07:00,47.8,32.0,17.72,NE,53,0.0,0.0,54,0.00,,,0.00,VWS V14.01,2013-03-07 12:07:00,
2013-03-07 07:13:00,47.7,31.9,17.72,NNE,20,2.7,5.8,54,0.00,,,0.00,VWS V14.01,2013-03-07 12:13:00,
2013-03-07 07:18:00,48.0,32.2,17.72,NNE,29,2.7,4.0,54,0.00,,,0.00,VWS V14.01,2013-03-07 12:18:00,
2013-03-07 07:24:00,48.0,32.6,17.72,NNE,23,3.1,3.1,55,0.00,,,0.00,VWS V14.01,2013-03-07 12:24:00,
2013-03-07 07:29:00,48.0,32.2,17.72,NNE,27,2.2,3.1,54,0.00,,,0.00,VWS V14.01,2013-03-07 12:29:00,
2013-03-07 07:35:00,48.2,32.3,17.72,NE,34,0.0,0.0,54,0.00,,,0.00,VWS V14.01,2013-03-07 12:35:00,
2013-03-07 07:40:00,48.4,32.5,17.72,NNE,23,0.0,0.0,54,0.00,,,0.00,VWS V14.01,2013-03-07 12:40:00,
2013-03-07 07:46:00,48.7,32.8,17.72,NNE,24,0.0,2.2,54,0.00,,,0.00,VWS V14.01,2013-03-07 12:46:00,
2013-03-07 07:51:00,48.9,33.0,17.72,NE,39,5.8,5.8,54,0.00,,,0.00,VWS V14.01,2013-03-07 12:51:00,
2013-03-07 07:56:00,49.3,32.9,17.72,NE,37,0.0,4.9,53,0.00,,,0.00,VWS V14.01,2013-03-07 12:56:00,
2013-03-07 08:01:00,49.5,33.1,17.72,NE,37,4.0,6.3,53,0.00,,,0.00,VWS V14.01,2013-03-07 13:01:00,
2013-03-07 08:07:00,49.6,32.8,17.72,NNE,23,5.8,5.8,52,0.00,,,0.00,VWS V14.01,2013-03-07 13:07:00,
2013-03-07 08:12:00,49.8,32.9,17.72,NE,49,3.1,5.4,52,0.00,,,0.00,VWS V14.01,2013-03-07 13:12:00,
2013-03-07 08:17:00,50.0,32.6,17.72,ENE,66,8.3,8.3,51,0.00,,,0.00,VWS V14.01,2013-03-07 13:17:00,
2013-03-07 08:22:00,50.4,32.9,17.72,NNE,21,3.1,4.9,51,0.00,,,0.00,VWS V14.01,2013-03-07 13:22:00,
2013-03-07 08:28:00,50.9,33.4,17.72,NNE,31,0.0,3.6,51,0.00,,,0.00,VWS V14.01,2013-03-07 13:28:00,
2013-03-07 08:34:00,51.1,33.6,17.72,NE,54,7.6,7.6,51,0.00,,,0.00,VWS V14.01,2013-03-07 13:34:00,
2013-03-07 08:39:00,51.3,33.3,17.72,ENE,61,8.7,8.7,50,0.00,,,0.00,VWS V14.01,2013-03-07 13:39:00,
2013-03-07 08:44:00,51.6,33.6,17.72,NE,53,5.8,8.1,50,0.00,,,0.00,VWS V14.01,2013-03-07 13:44:00,
2013-03-07 08:49:00,51.8,33.3,17.72,NE,47,4.0,6.3,49,0.00,,,0.00,VWS V14.01,2013-03-07 13:49:00,
2013-03-07 08:55:00,52.3,33.8,17.72,NE,42,6.3,6.3,49,0.00,,,0.00,VWS V14.01,2013-03-07 13:55:00,
2013-03-07 09:00:00,52.7,34.1,17.72,NNE,32,4.0,4.0,49,0.00,,,0.00,VWS V14.01,2013-03-07 14:00:00,
2013-03-07 09:05:00,53.1,34.4,17.72,NE,47,5.4,6.3,49,0.00,,,0.00,VWS V14.01,2013-03-07 14:05:00,
2013-03-07 09:10:00,53.4,34.2,17.72,NNE,27,4.5,6.3,48,0.00,,,0.00,VWS V14.01,2013-03-07 14:10:00,
2013-03-07 09:16:00,53.8,34.6,17.72,NE,55,3.1,10.1,48,0.00,,,0.00,VWS V14.01,2013-03-07 14:16:00,
2013-03-07 09:21:00,54.3,35.1,17.72,NNW,333,4.9,4.9,48,0.00,,,0.00,VWS V14.01,2013-03-07 14:21:00,
2013-03-07 09:27:00,54.9,35.6,17.72,NNE,21,3.6,7.6,48,0.00,,,0.00,VWS V14.01,2013-03-07 14:27:00,
2013-03-07 09:33:00,55.6,35.7,17.72,NNE,20,0.0,3.6,47,0.00,,,0.00,VWS V14.01,2013-03-07 14:33:00,
2013-03-07 09:38:00,56.1,36.2,17.72,NNE,18,3.1,3.6,47,0.00,,,0.00,VWS V14.01,2013-03-07 14:38:00,
2013-03-07 09:43:00,56.3,35.8,17.72,North,10,3.6,3.6,46,0.00,,,0.00,VWS V14.01,2013-03-07 14:43:00,
2013-03-07 09:48:00,56.7,36.1,17.72,NNE,23,3.1,4.0,46,0.00,,,0.00,VWS V14.01,2013-03-07 14:48:00,
2013-03-07 09:53:00,57.0,36.5,17.72,ENE,57,4.0,5.4,46,0.00,,,0.00,VWS V14.01,2013-03-07 14:53:00,
2013-03-07 09:59:00,57.2,36.1,17.72,NNE,21,2.2,3.1,45,0.00,,,0.00,VWS V14.01,2013-03-07 14:59:00,
2013-03-07 10:05:00,57.6,36.4,17.72,NE,52,3.6,4.0,45,0.00,,,0.00,VWS V14.01,2013-03-07 15:05:00,
2013-03-07 10:10:00,57.9,36.7,17.72,NE,41,0.0,0.0,45,0.00,,,0.00,VWS V14.01,2013-03-07 15:10:00,
2013-03-07 10:15:00,58.5,37.2,17.72,NNE,23,2.2,3.6,45,0.00,,,0.00,VWS V14.01,2013-03-07 15:15:00,
2013-03-07 10:20:00,58.8,37.5,17.72,North,6,0.0,4.0,45,0.00,,,0.00,VWS V14.01,2013-03-07 15:20:00,
2013-03-07 10:25:00,59.4,37.5,17.72,NNE,25,0.0,3.1,44,0.00,,,0.00,VWS V14.01,2013-03-07 15:25:00,
2013-03-07 10:31:00,59.7,37.8,17.72,NE,47,3.1,4.0,44,0.00,,,0.00,VWS V14.01,2013-03-07 15:31:00,
2013-03-07 10:36:00,60.1,38.1,17.72,East,96,3.1,6.7,44,0.00,,,0.00,VWS V14.01,2013-03-07 15:36:00,
2013-03-07 10:41:00,60.4,38.4,17.72,North,357,3.1,4.0,44,0.00,,,0.00,VWS V14.01,2013-03-07 15:41:00,
2013-03-07 10:46:00,60.4,37.9,17.72,ENE,64,6.3,6.3,43,0.00,,,0.00,VWS V14.01,2013-03-07 15:46:00,
2013-03-07 10:52:00,60.6,38.0,17.72,SSE,161,0.0,4.9,43,0.00,,,0.00,VWS V14.01,2013-03-07 15:52:00,
2013-03-07 10:58:00,61.0,37.8,17.72,NNW,327,0.0,0.0,42,0.00,,,0.00,VWS V14.01,2013-03-07 15:58:00,
2013-03-07 11:04:00,61.5,38.2,17.72,NNE,30,0.0,3.1,42,0.00,,,0.00,VWS V14.01,2013-03-07 16:04:00,
2013-03-07 11:09:00,62.2,38.9,17.72,North,4,2.2,6.3,42,0.00,,,0.00,VWS V14.01,2013-03-07 16:09:00,
2013-03-07 11:14:00,62.6,38.6,17.72,NNE,33,0.0,3.1,41,0.00,,,0.00,VWS V14.01,2013-03-07 16:14:00,
2013-03-07 11:19:00,63.1,39.1,17.72,NE,35,0.0,0.0,41,0.00,,,0.00,VWS V14.01,2013-03-07 16:19:00,
2013-03-07 11:24:00,63.5,39.4,17.72,NNE,33,0.0,2.7,41,0.00,,,0.00,VWS V14.01,2013-03-07 16:24:00,
2013-03-07 11:29:00,63.0,38.3,17.72,West,272,0.0,0.0,40,0.00,,,0.00,VWS V14.01,2013-03-07 16:29:00,
2013-03-07 11:34:00,62.8,38.1,17.72,WSW,250,0.0,0.0,40,0.00,,,0.00,VWS V14.01,2013-03-07 16:34:00,
2013-03-07 11:40:00,63.9,39.1,17.72,NE,39,2.2,3.6,40,0.00,,,0.00,VWS V14.01,2013-03-07 16:40:00,
2013-03-07 11:45:00,64.4,39.6,17.72,North,353,0.0,0.0,40,0.00,,,0.00,VWS V14.01,2013-03-07 16:45:00,
2013-03-07 11:51:00,64.8,39.2,17.72,ENE,71,3.6,3.6,39,0.00,,,0.00,VWS V14.01,2013-03-07 16:51:00,
2013-03-07 11:56:00,64.9,39.4,17.72,ENE,57,0.0,4.0,39,0.00,,,0.00,VWS V14.01,2013-03-07 16:56:00,
2013-03-07 12:02:00,65.3,39.7,17.72,NE,44,3.1,4.9,39,0.00,,,0.00,VWS V14.01,2013-03-07 17:02:00,
2013-03-07 12:08:00,66.0,40.4,17.72,NNE,32,3.1,5.8,39,0.00,,,0.00,VWS V14.01,2013-03-07 17:08:00,
2013-03-07 12:13:00,66.2,39.9,17.72,NNE,14,0.0,0.0,38,0.00,,,0.00,VWS V14.01,2013-03-07 17:13:00,
2013-03-07 12:19:00,65.3,39.1,17.72,WNW,303,0.0,4.0,38,0.00,,,0.00,VWS V14.01,2013-03-07 17:19:00,
2013-03-07 12:25:00,66.0,39.7,17.72,NNE,32,3.6,3.6,38,0.00,,,0.00,VWS V14.01,2013-03-07 17:25:00,
2013-03-07 12:30:00,66.6,40.2,17.72,NE,48,0.0,0.0,38,0.00,,,0.00,VWS V14.01,2013-03-07 17:30:00,
2013-03-07 12:36:00,67.5,40.3,17.72,ENE,57,0.0,2.2,37,0.00,,,0.00,VWS V14.01,2013-03-07 17:36:00,
2013-03-07 12:41:00,67.6,40.5,17.72,North,1,0.0,0.0,37,0.00,,,0.00,VWS V14.01,2013-03-07 17:41:00,
2013-03-07 12:47:00,67.8,40.6,17.72,NE,50,3.1,4.0,37,0.00,,,0.00,VWS V14.01,2013-03-07 17:47:00,
2013-03-07 12:53:00,68.4,40.4,17.72,ENE,78,2.7,4.0,36,0.00,,,0.00,VWS V14.01,2013-03-07 17:53:00,
2013-03-07 12:58:00,68.4,40.4,17.72,North,10,2.2,2.7,36,0.00,,,0.00,VWS V14.01,2013-03-07 17:58:00,
2013-03-07 13:04:00,68.2,40.2,17.72,North,357,0.0,0.0,36,0.00,,,0.00,VWS V14.01,2013-03-07 18:04:00,
2013-03-07 13:09:00,68.4,40.4,17.72,NNE,29,2.2,2.2,36,0.00,,,0.00,VWS V14.01,2013-03-07 18:09:00,
2013-03-07 13:15:00,68.5,40.5,17.72,NNE,15,0.0,0.0,36,0.00,,,0.00,VWS V14.01,2013-03-07 18:15:00,
2013-03-07 13:21:00,69.1,40.3,17.72,WNW,291,0.0,3.6,35,0.00,,,0.00,VWS V14.01,2013-03-07 18:21:00,
2013-03-07 13:26:00,68.4,40.4,17.72,NW,314,0.0,2.7,36,0.00,,,0.00,VWS V14.01,2013-03-07 18:26:00,
2013-03-07 13:32:00,68.4,40.4,17.72,North,4,0.0,0.0,36,0.00,,,0.00,VWS V14.01,2013-03-07 18:32:00,
2013-03-07 13:37:00,68.9,40.9,17.72,WNW,286,0.0,0.0,36,0.00,,,0.00,VWS V14.01,2013-03-07 18:37:00,
2013-03-07 13:43:00,68.7,40.0,17.72,NNE,33,2.2,3.6,35,0.00,,,0.00,VWS V14.01,2013-03-07 18:43:00,
2013-03-07 13:49:00,69.1,41.0,17.72,NNE,18,0.0,0.0,36,0.00,,,0.00,VWS V14.01,2013-03-07 18:49:00,
2013-03-07 13:54:00,69.4,40.6,17.72,NE,51,4.0,4.0,35,0.00,,,0.00,VWS V14.01,2013-03-07 18:54:00,
2013-03-07 13:59:00,69.4,40.6,17.72,NE,45,0.0,0.0,35,0.00,,,0.00,VWS V14.01,2013-03-07 18:59:00,
2013-03-07 14:04:00,69.3,40.5,17.72,NNW,337,0.0,0.0,35,0.00,,,0.00,VWS V14.01,2013-03-07 19:04:00,
2013-03-07 14:09:00,69.4,40.6,17.72,NNW,335,0.0,0.0,35,0.00,,,0.00,VWS V14.01,2013-03-07 19:09:00,
2013-03-07 14:14:00,69.6,40.8,17.72,NW,312,0.0,0.0,35,0.00,,,0.00,VWS V14.01,2013-03-07 19:14:00,
2013-03-07 14:20:00,70.0,41.1,17.72,NW,323,0.0,0.0,35,0.00,,,0.00,VWS V14.01,2013-03-07 19:20:00,
2013-03-07 14:25:00,70.2,41.3,17.72,North,1,0.0,2.7,35,0.00,,,0.00,VWS V14.01,2013-03-07 19:25:00,
2013-03-07 14:30:00,69.8,40.2,17.72,NE,39,0.0,0.0,34,0.00,,,0.00,VWS V14.01,2013-03-07 19:30:00,
2013-03-07 14:35:00,70.0,40.3,17.72,NNE,20,0.0,0.0,34,0.00,,,0.00,VWS V14.01,2013-03-07 19:35:00,
2013-03-07 14:40:00,70.2,40.5,17.72,WNW,285,0.0,3.1,34,0.00,,,0.00,VWS V14.01,2013-03-07 19:40:00,
2013-03-07 14:46:00,70.7,41.0,17.72,NW,314,0.0,3.1,34,0.00,,,0.00,VWS V14.01,2013-03-07 19:46:00,
2013-03-07 14:51:00,70.7,41.0,17.72,NE,39,0.0,3.1,34,0.00,,,0.00,VWS V14.01,2013-03-07 19:51:00,
2013-03-07 14:57:00,70.7,41.0,17.72,West,275,0.0,6.7,34,0.00,,,0.00,VWS V14.01,2013-03-07 19:57:00,
2013-03-07 15:03:00,69.8,40.2,17.72,ENE,58,2.2,2.2,34,0.00,,,0.00,VWS V14.01,2013-03-07 20:03:00,
2013-03-07 15:08:00,70.3,40.7,17.72,NNE,26,0.0,3.6,34,0.00,,,0.00,VWS V14.01,2013-03-07 20:08:00,
2013-03-07 15:14:00,70.7,41.0,17.72,WNW,284,0.0,0.0,34,0.00,,,0.00,VWS V14.01,2013-03-07 20:14:00,
2013-03-07 15:19:00,70.7,41.0,17.72,NNE,31,0.0,0.0,34,0.00,,,0.00,VWS V14.01,2013-03-07 20:19:00,
2013-03-07 15:25:00,70.0,40.3,17.72,NE,49,0.0,0.0,34,0.00,,,0.00,VWS V14.01,2013-03-07 20:25:00,
2013-03-07 15:30:00,69.4,39.9,17.72,ESE,121,0.0,0.0,34,0.00,,,0.00,VWS V14.01,2013-03-07 20:30:00,
2013-03-07 15:35:00,70.0,40.3,17.72,NNW,333,2.2,4.0,34,0.00,,,0.00,VWS V14.01,2013-03-07 20:35:00,
2013-03-07 15:41:00,70.3,40.7,17.72,NE,43,0.0,0.0,34,0.00,,,0.00,VWS V14.01,2013-03-07 20:41:00,
2013-03-07 15:46:00,70.0,40.3,17.72,WSW,241,2.7,4.0,34,0.00,,,0.00,VWS V14.01,2013-03-07 20:46:00,
2013-03-07 15:52:00,69.6,40.8,17.72,NW,312,0.0,3.1,35,0.00,,,0.00,VWS V14.01,2013-03-07 20:52:00,
2013-03-07 15:57:00,69.8,40.9,17.72,NW,305,0.0,0.0,35,0.00,,,0.00,VWS V14.01,2013-03-07 20:57:00,
2013-03-07 16:03:00,69.8,40.9,17.72,NW,323,0.0,0.0,35,0.00,,,0.00,VWS V14.01,2013-03-07 21:03:00,
2013-03-07 16:08:00,68.9,40.2,17.72,NW,314,0.0,0.0,35,0.00,,,0.00,VWS V14.01,2013-03-07 21:08:00,
2013-03-07 16:13:00,69.3,41.2,17.72,ENE,66,0.0,0.0,36,0.00,,,0.00,VWS V14.01,2013-03-07 21:13:00,
2013-03-07 16:19:00,69.3,40.5,17.72,WNW,300,2.7,8.3,35,0.00,,,0.00,VWS V14.01,2013-03-07 21:19:00,
2013-03-07 16:24:00,71.4,42.4,17.72,NW,314,0.0,0.0,35,0.00,,,0.00,VWS V14.01,2013-03-07 21:24:00,
2013-03-07 16:30:00,71.6,42.5,17.72,WNW,302,0.0,0.0,35,0.00,,,0.00,VWS V14.01,2013-03-07 21:30:00,
2013-03-07 16:35:00,73.2,44.0,17.72,North,350,0.0,0.0,35,0.00,,,0.00,VWS V14.01,2013-03-07 21:35:00,
2013-03-07 16:41:00,74.5,44.3,17.72,NW,316,0.0,0.0,34,0.00,,,0.00,VWS V14.01,2013-03-07 21:41:00,
2013-03-07 16:46:00,74.5,44.3,17.72,NNW,327,0.0,3.6,34,0.00,,,0.00,VWS V14.01,2013-03-07 21:46:00,
2013-03-07 16:51:00,73.4,43.3,17.72,NW,307,0.0,0.0,34,0.00,,,0.00,VWS V14.01,2013-03-07 21:51:00,
2013-03-07 16:56:00,71.8,42.7,17.72,NW,310,0.0,0.0,35,0.00,,,0.00,VWS V14.01,2013-03-07 21:56:00,
2013-03-07 17:01:00,70.9,41.9,17.72,NW,315,0.0,0.0,35,0.00,,,0.00,VWS V14.01,2013-03-07 22:01:00,
2013-03-07 17:06:00,69.8,41.7,17.72,NW,311,0.0,0.0,36,0.00,,,0.00,VWS V14.01,2013-03-07 22:06:00,
2013-03-07 17:11:00,68.9,40.9,17.72,NW,304,2.2,3.1,36,0.00,,,0.00,VWS V14.01,2013-03-07 22:11:00,
2013-03-07 17:16:00,68.0,40.8,17.72,WNW,288,4.0,4.0,37,0.00,,,0.00,VWS V14.01,2013-03-07 22:16:00,
2013-03-07 17:21:00,66.9,40.5,17.72,WNW,300,0.0,0.0,38,0.00,,,0.00,VWS V14.01,2013-03-07 22:21:00,
2013-03-07 17:27:00,67.1,40.7,17.72,NW,319,0.0,0.0,38,0.00,,,0.00,VWS V14.01,2013-03-07 22:27:00,
2013-03-07 17:32:00,66.6,40.9,17.72,North,3,0.0,0.0,39,0.00,,,0.00,VWS V14.01,2013-03-07 22:32:00,
2013-03-07 17:37:00,65.7,40.7,17.72,NW,312,0.0,0.0,40,0.00,,,0.00,VWS V14.01,2013-03-07 22:37:00,
2013-03-07 17:42:00,65.1,40.9,17.72,NW,310,0.0,0.0,41,0.00,,,0.00,VWS V14.01,2013-03-07 22:42:00,
2013-03-07 17:48:00,64.9,41.3,17.72,NW,306,0.0,0.0,42,0.00,,,0.00,VWS V14.01,2013-03-07 22:48:00,
2013-03-07 17:54:00,64.2,41.3,17.72,NW,315,0.0,0.0,43,0.00,,,0.00,VWS V14.01,2013-03-07 22:54:00,
2013-03-07 17:59:00,63.7,41.4,17.72,NNW,337,0.0,0.0,44,0.00,,,0.00,VWS V14.01,2013-03-07 22:59:00,
2013-03-07 18:05:00,63.1,40.9,17.72,WSW,254,0.0,0.0,44,0.00,,,0.00,VWS V14.01,2013-03-07 23:05:00,
2013-03-07 18:10:00,62.6,41.0,17.72,West,263,0.0,0.0,45,0.00,,,0.00,VWS V14.01,2013-03-07 23:10:00,
2013-03-07 18:16:00,62.1,41.1,17.72,NW,312,2.7,4.9,46,0.00,,,0.00,VWS V14.01,2013-03-07 23:16:00,
2013-03-07 18:22:00,61.7,41.3,17.72,WNW,288,0.0,0.0,47,0.00,,,0.00,VWS V14.01,2013-03-07 23:22:00,
2013-03-07 18:27:00,61.3,41.0,17.72,WNW,298,0.0,6.7,47,0.00,,,0.00,VWS V14.01,2013-03-07 23:27:00,
2013-03-07 18:33:00,61.0,41.2,17.72,WNW,285,0.0,2.2,48,0.00,,,0.00,VWS V14.01,2013-03-07 23:33:00,
2013-03-07 18:38:00,60.4,41.2,17.72,WNW,295,0.0,0.0,49,0.00,,,0.00,VWS V14.01,2013-03-07 23:38:00,
2013-03-07 18:44:00,60.3,41.0,17.72,NW,318,0.0,0.0,49,0.00,,,0.00,VWS V14.01,2013-03-07 23:44:00,
2013-03-07 18:49:00,59.9,41.2,17.72,NW,310,0.0,2.7,50,0.00,,,0.00,VWS V14.01,2013-03-07 23:49:00,
2013-03-07 18:54:00,59.7,41.1,17.72,NW,305,0.0,0.0,50,0.00,,,0.00,VWS V14.01,2013-03-07 23:54:00,
2013-03-07 18:59:00,59.5,41.4,17.72,NW,305,0.0,0.0,51,0.00,,,0.00,VWS V14.01,2013-03-07 23:59:00,
2013-03-07 19:05:00,59.4,41.2,17.72,NW,316,0.0,3.1,51,0.00,,,0.00,VWS V14.01,2013-03-08 00:05:00,
2013-03-07 19:11:00,59.2,41.6,17.72,NW,306,0.0,0.0,52,0.00,,,0.00,VWS V14.01,2013-03-08 00:11:00,
2013-03-07 19:16:00,59.0,41.4,17.72,NW,306,0.0,0.0,52,0.00,,,0.00,VWS V14.01,2013-03-08 00:16:00,
2013-03-07 19:22:00,58.8,41.7,17.72,NW,306,0.0,0.0,53,0.00,,,0.00,VWS V14.01,2013-03-08 00:22:00,
2013-03-07 19:27:00,58.6,42.1,17.72,NW,306,0.0,0.0,54,0.00,,,0.00,VWS V14.01,2013-03-08 00:27:00,
2013-03-07 19:33:00,58.5,41.9,17.72,NW,304,0.0,0.0,54,0.00,,,0.00,VWS V14.01,2013-03-08 00:33:00,
2013-03-07 19:38:00,58.5,42.4,17.72,NW,316,0.0,0.0,55,0.00,,,0.00,VWS V14.01,2013-03-08 00:38:00,
2013-03-07 19:43:00,58.3,42.2,17.72,West,263,0.0,0.0,55,0.00,,,0.00,VWS V14.01,2013-03-08 00:43:00,
2013-03-07 19:48:00,58.1,42.5,17.72,West,263,0.0,0.0,56,0.00,,,0.00,VWS V14.01,2013-03-08 00:48:00,
2013-03-07 19:54:00,57.9,42.8,17.72,WNW,292,0.0,0.0,57,0.00,,,0.00,VWS V14.01,2013-03-08 00:54:00,
2013-03-07 20:00:00,57.9,43.2,17.72,NW,311,0.0,0.0,58,0.00,,,0.00,VWS V14.01,2013-03-08 01:00:00,
2013-03-07 20:05:00,57.7,43.1,17.72,WNW,295,0.0,0.0,58,0.00,,,0.00,VWS V14.01,2013-03-08 01:05:00,
2013-03-07 20:11:00,57.6,43.4,17.72,West,266,0.0,0.0,59,0.00,,,0.00,VWS V14.01,2013-03-08 01:11:00,
2013-03-07 20:17:00,57.6,43.8,17.72,West,266,0.0,0.0,60,0.00,,,0.00,VWS V14.01,2013-03-08 01:17:00,
2013-03-07 20:22:00,57.6,43.8,17.72,West,266,0.0,0.0,60,0.00,,,0.00,VWS V14.01,2013-03-08 01:22:00,
2013-03-07 20:27:00,57.6,44.2,17.72,West,266,0.0,0.0,61,0.00,,,0.00,VWS V14.01,2013-03-08 01:27:00,
2013-03-07 20:32:00,57.4,44.5,17.72,West,266,0.0,0.0,62,0.00,,,0.00,VWS V14.01,2013-03-08 01:32:00,
2013-03-07 20:38:00,57.4,44.9,17.72,West,266,0.0,0.0,63,0.00,,,0.00,VWS V14.01,2013-03-08 01:38:00,
2013-03-07 20:43:00,57.2,45.2,17.72,West,266,0.0,0.0,64,0.00,,,0.00,VWS V14.01,2013-03-08 01:43:00,
2013-03-07 20:48:00,57.2,45.2,17.72,West,266,0.0,0.0,64,0.00,,,0.00,VWS V14.01,2013-03-08 01:48:00,
2013-03-07 20:54:00,57.2,45.6,17.72,West,266,0.0,0.0,65,0.00,,,0.00,VWS V14.01,2013-03-08 01:54:00,
2013-03-07 20:59:00,57.0,45.4,17.72,West,266,0.0,0.0,65,0.00,,,0.00,VWS V14.01,2013-03-08 01:59:00,
2013-03-07 21:04:00,56.8,45.6,17.72,West,266,0.0,0.0,66,0.00,,,0.00,VWS V14.01,2013-03-08 02:04:00,
2013-03-07 21:09:00,56.8,45.6,17.72,West,266,0.0,0.0,66,0.00,,,0.00,VWS V14.01,2013-03-08 02:09:00,
2013-03-07 21:14:00,56.7,45.0,17.72,NNW,342,0.0,0.0,65,0.00,,,0.00,VWS V14.01,2013-03-08 02:14:00,
2013-03-07 21:19:00,56.7,45.0,17.72,NNE,15,0.0,0.0,65,0.00,,,0.00,VWS V14.01,2013-03-08 02:19:00,
2013-03-07 21:24:00,56.5,44.5,17.72,NNE,15,0.0,0.0,64,0.00,,,0.00,VWS V14.01,2013-03-08 02:24:00,
2013-03-07 21:29:00,56.3,44.3,17.72,NNE,15,0.0,0.0,64,0.00,,,0.00,VWS V14.01,2013-03-08 02:29:00,
2013-03-07 21:34:00,56.3,44.3,17.72,NW,320,0.0,0.0,64,0.00,,,0.00,VWS V14.01,2013-03-08 02:34:00,
2013-03-07 21:40:00,56.1,44.1,17.72,NW,320,0.0,0.0,64,0.00,,,0.00,VWS V14.01,2013-03-08 02:40:00,
2013-03-07 21:45:00,55.9,44.0,17.72,NW,320,0.0,0.0,64,0.00,,,0.00,VWS V14.01,2013-03-08 02:45:00,
2013-03-07 21:50:00,55.9,44.4,17.72,NW,320,0.0,0.0,65,0.00,,,0.00,VWS V14.01,2013-03-08 02:50:00,
2013-03-07 21:56:00,55.9,44.4,17.72,NW,320,0.0,0.0,65,0.00,,,0.00,VWS V14.01,2013-03-08 02:56:00,
2013-03-07 22:01:00,55.8,44.2,17.72,NW,320,0.0,0.0,65,0.00,,,0.00,VWS V14.01,2013-03-08 03:01:00,
2013-03-07 22:07:00,55.6,44.0,17.72,NW,320,0.0,0.0,65,0.00,,,0.00,VWS V14.01,2013-03-08 03:07:00,
2013-03-07 22:13:00,55.2,44.1,17.72,NW,320,0.0,0.0,66,0.00,,,0.00,VWS V14.01,2013-03-08 03:13:00,
2013-03-07 22:18:00,55.2,44.1,17.72,NW,320,0.0,0.0,66,0.00,,,0.00,VWS V14.01,2013-03-08 03:18:00,
2013-03-07 22:24:00,55.2,44.5,17.72,NW,320,0.0,0.0,67,0.00,,,0.00,VWS V14.01,2013-03-08 03:24:00,
2013-03-07 22:29:00,55.0,44.3,17.72,NW,320,0.0,0.0,67,0.00,,,0.00,VWS V14.01,2013-03-08 03:29:00,
2013-03-07 22:35:00,54.9,44.5,17.72,NW,320,0.0,0.0,68,0.00,,,0.00,VWS V14.01,2013-03-08 03:35:00,
2013-03-07 22:40:00,54.7,44.3,17.72,NW,320,0.0,0.0,68,0.00,,,0.00,VWS V14.01,2013-03-08 03:40:00,
2013-03-07 22:45:00,54.5,44.2,17.72,NW,320,0.0,0.0,68,0.00,,,0.00,VWS V14.01,2013-03-08 03:45:00,
2013-03-07 22:51:00,54.3,44.4,17.72,NW,320,0.0,0.0,69,0.00,,,0.00,VWS V14.01,2013-03-08 03:51:00,
2013-03-07 22:56:00,54.1,44.2,17.72,North,1,0.0,0.0,69,0.00,,,0.00,VWS V14.01,2013-03-08 03:56:00,
2013-03-07 23:01:00,54.1,44.2,17.72,North,0,0.0,0.0,69,0.00,,,0.00,VWS V14.01,2013-03-08 04:01:00,
2013-03-07 23:06:00,54.0,44.4,17.72,North,0,0.0,0.0,70,0.00,,,0.00,VWS V14.01,2013-03-08 04:06:00,
2013-03-07 23:11:00,53.8,44.2,17.72,North,0,0.0,0.0,70,0.00,,,0.00,VWS V14.01,2013-03-08 04:11:00,
2013-03-07 23:16:00,53.8,44.6,17.72,NNE,18,0.0,0.0,71,0.00,,,0.00,VWS V14.01,2013-03-08 04:16:00,
2013-03-07 23:22:00,53.6,44.4,17.72,NNE,31,0.0,0.0,71,0.00,,,0.00,VWS V14.01,2013-03-08 04:22:00,
2013-03-07 23:27:00,53.8,44.2,17.72,NNE,31,0.0,0.0,70,0.00,,,0.00,VWS V14.01,2013-03-08 04:27:00,
2013-03-07 23:33:00,53.4,43.9,17.72,NNE,31,0.0,0.0,70,0.00,,,0.00,VWS V14.01,2013-03-08 04:33:00,
2013-03-07 23:38:00,53.2,43.7,17.72,NNE,27,0.0,0.0,70,0.00,,,0.00,VWS V14.01,2013-03-08 04:38:00,
2013-03-07 23:44:00,53.2,43.3,17.72,NNE,27,0.0,0.0,69,0.00,,,0.00,VWS V14.01,2013-03-08 04:44:00,
2013-03-07 23:49:00,53.1,43.2,17.72,NNE,27,0.0,0.0,69,0.00,,,0.00,VWS V14.01,2013-03-08 04:49:00,
2013-03-07 23:54:00,53.1,43.2,17.72,NNE,27,0.0,0.0,69,0.00,,,0.00,VWS V14.01,2013-03-08 04:54:00,
2013-03-07 23:59:00,52.9,42.6,17.72,NNE,24,0.0,0.0,68,0.00,,,0.00,VWS V14.01,2013-03-08 04:59:00,